Alturas, California
Current Conditions -  °F | °C
As of 3:55 PM on Thursday 18 Dec 2014 (Local Time) from KAAT Reporting Station
Overcast Overcast  
Wind Chill: 38°   Ceiling: 3300
Heat Index: 42°   Visibility: 10mi
Dew Point: 32°   Wind: 6mph
Humidity: 67%   Direction: 220°SW
Pressure: 30.09"   Gusts: NA
Location:  41.49°N, 120.54°W
Report Text: KAAT 182355Z AUTO 22005KT 10SM OVC033 06/00 A3009 RMK AO2 SLP192 T00560000 10067 20028 55001
Loading
Personal Weather Stations






























Interactive Weather Map New forecast layout! Learn more

10-Day Weather Forecast

Advertisements
Track Severe Weather on mobile